createdAt,value
2022-10-07T00:01:04.128Z,15.79
2022-10-07T00:03:32.526Z,15.69
2022-10-07T00:06:13.646Z,15.68
2022-10-07T00:08:43.800Z,15.63
2022-10-07T00:11:16.588Z,15.63
2022-10-07T00:13:45.705Z,15.66
2022-10-07T00:16:18.308Z,15.51
2022-10-07T00:18:45.950Z,15.57
2022-10-07T00:21:14.922Z,15.55
2022-10-07T00:23:43.569Z,15.54
2022-10-07T00:26:14.337Z,15.57
2022-10-07T00:28:42.379Z,15.49
2022-10-07T00:31:17.089Z,15.54
2022-10-07T00:33:45.193Z,15.50
2022-10-07T00:36:17.638Z,15.47
2022-10-07T00:38:45.573Z,15.34
2022-10-07T00:41:26.328Z,15.37
2022-10-07T00:43:54.091Z,15.28
2022-10-07T00:46:40.279Z,15.33
2022-10-07T00:49:12.909Z,15.40
2022-10-07T00:51:41.370Z,15.40
2022-10-07T00:54:14.871Z,15.18
2022-10-07T00:56:42.708Z,15.37
2022-10-07T00:59:11.264Z,15.30
2022-10-07T01:01:41.066Z,15.29
2022-10-07T01:04:15.160Z,15.22
2022-10-07T01:06:42.967Z,15.20
2022-10-07T01:09:10.966Z,15.17
2022-10-07T01:12:00.862Z,15.28
2022-10-07T01:14:34.351Z,15.31
2022-10-07T01:17:09.435Z,15.27
2022-10-07T01:19:46.005Z,15.22
2022-10-07T01:22:20.243Z,15.17
2022-10-07T01:24:59.948Z,15.15
2022-10-07T01:27:27.837Z,15.04
2022-10-07T01:29:59.386Z,15.03
2022-10-07T01:32:36.836Z,15.02
2022-10-07T01:35:11.087Z,15.02
2022-10-07T01:37:43.445Z,14.99
2022-10-07T01:40:15.119Z,15.03
2022-10-07T01:42:43.291Z,15.08
2022-10-07T01:45:12.132Z,14.92
2022-10-07T01:47:39.949Z,14.99
2022-10-07T01:50:14.761Z,14.81
2022-10-07T01:53:12.941Z,14.87
2022-10-07T01:56:01.303Z,14.90
2022-10-07T01:58:42.286Z,14.88
2022-10-07T02:01:28.644Z,14.74
2022-10-07T02:03:56.298Z,14.83
2022-10-07T02:06:40.072Z,14.65
2022-10-07T02:09:33.333Z,14.66
2022-10-07T02:12:09.160Z,14.69
2022-10-07T02:14:41.357Z,14.78
2022-10-07T02:17:17.024Z,14.65
2022-10-07T02:19:54.023Z,14.69
2022-10-07T02:22:23.091Z,14.71
2022-10-07T02:24:55.289Z,14.62
2022-10-07T02:27:25.577Z,14.72
2022-10-07T02:29:54.556Z,14.55
2022-10-07T02:32:23.559Z,14.57
2022-10-07T02:34:54.651Z,14.52
2022-10-07T02:37:26.481Z,14.57
2022-10-07T02:39:55.224Z,14.58
2022-10-07T02:42:35.618Z,14.57
2022-10-07T02:45:16.842Z,14.53
2022-10-07T02:47:51.478Z,14.40
2022-10-07T02:50:22.931Z,14.48
2022-10-07T02:52:52.911Z,14.41
2022-10-07T02:55:23.206Z,14.48
2022-10-07T02:57:53.508Z,14.42
2022-10-07T03:00:21.123Z,14.31
2022-10-07T03:02:57.027Z,14.38
2022-10-07T03:05:26.102Z,14.34
2022-10-07T03:08:06.368Z,14.26
2022-10-07T03:10:34.519Z,14.29
2022-10-07T03:13:04.833Z,14.25
2022-10-07T03:15:39.730Z,14.31
2022-10-07T03:18:26.299Z,14.25
2022-10-07T03:20:55.514Z,14.19
2022-10-07T03:23:24.583Z,14.22
2022-10-07T03:25:53.530Z,14.07
2022-10-07T03:28:23.049Z,14.07
2022-10-07T03:30:51.374Z,14.12
2022-10-07T03:33:21.258Z,14.10
2022-10-07T03:35:48.873Z,14.15
2022-10-07T03:38:16.624Z,14.19
2022-10-07T03:40:44.444Z,14.19
2022-10-07T03:43:12.321Z,14.16
2022-10-07T03:45:44.504Z,14.05
2022-10-07T03:48:12.020Z,13.93
2022-10-07T03:50:39.870Z,13.90
2022-10-07T03:53:07.974Z,14.02
2022-10-07T03:55:35.336Z,14.02
2022-10-07T03:58:02.974Z,14.04
2022-10-07T04:00:30.346Z,14.01
2022-10-07T04:02:58.468Z,13.87
2022-10-07T04:05:25.851Z,13.91
2022-10-07T04:07:54.321Z,13.91
2022-10-07T04:10:22.046Z,13.94
2022-10-07T04:12:51.271Z,13.88
2022-10-07T04:15:19.583Z,13.94
2022-10-07T04:17:48.712Z,13.86
2022-10-07T04:20:17.182Z,13.85
2022-10-07T04:22:44.550Z,13.88
2022-10-07T04:25:31.377Z,13.95
2022-10-07T04:28:00.540Z,13.89
2022-10-07T04:30:34.549Z,13.73
2022-10-07T04:33:02.862Z,13.80
2022-10-07T04:35:30.945Z,13.82
2022-10-07T04:37:58.769Z,13.78
2022-10-07T04:40:27.519Z,13.75
2022-10-07T04:43:14.259Z,13.78
2022-10-07T04:45:41.782Z,13.77
2022-10-07T04:48:09.351Z,13.65
2022-10-07T04:50:40.369Z,13.61
2022-10-07T04:53:09.186Z,13.64
2022-10-07T04:55:41.456Z,13.64
2022-10-07T04:58:09.204Z,13.66
2022-10-07T05:00:44.563Z,13.64
2022-10-07T05:03:16.187Z,13.62
2022-10-07T05:05:45.800Z,13.57
2022-10-07T05:08:14.954Z,13.57
2022-10-07T05:10:42.758Z,13.65
2022-10-07T05:13:12.967Z,13.58
2022-10-07T05:15:51.912Z,13.66
2022-10-07T05:18:20.597Z,13.60
2022-10-07T05:20:48.922Z,13.55
2022-10-07T05:23:19.080Z,13.48
2022-10-07T05:25:46.866Z,13.61
2022-10-07T05:28:15.344Z,13.56
2022-10-07T05:30:42.788Z,13.69
2022-10-07T05:33:10.763Z,13.52
2022-10-07T05:35:38.699Z,13.73
2022-10-07T05:38:06.070Z,13.65
2022-10-07T05:40:33.739Z,13.72
2022-10-07T05:43:01.233Z,13.93
2022-10-07T05:45:31.308Z,14.13
2022-10-07T05:47:59.171Z,14.24
2022-10-07T05:50:26.732Z,14.44
2022-10-07T05:52:54.447Z,14.45
2022-10-07T05:55:22.292Z,14.61
2022-10-07T05:57:49.733Z,14.81
2022-10-07T06:00:17.192Z,15.01
2022-10-07T06:02:46.500Z,15.22
2022-10-07T06:05:14.534Z,15.45
2022-10-07T06:07:41.982Z,15.58
2022-10-07T06:10:28.523Z,15.69
2022-10-07T06:13:08.064Z,15.81
2022-10-07T06:15:36.793Z,15.92
2022-10-07T06:18:04.373Z,16.14
2022-10-07T06:20:32.161Z,16.28
2022-10-07T06:23:00.046Z,16.50
2022-10-07T06:25:27.443Z,16.68
2022-10-07T06:27:58.353Z,16.72
2022-10-07T06:30:27.617Z,17.09
2022-10-07T06:32:56.341Z,17.26
2022-10-07T06:35:23.708Z,17.38
2022-10-07T06:37:52.685Z,17.47
2022-10-07T06:40:20.366Z,17.66
2022-10-07T06:42:47.955Z,17.81
2022-10-07T06:45:16.026Z,18.07
2022-10-07T06:47:43.984Z,18.21
2022-10-07T06:50:11.799Z,18.20
2022-10-07T06:52:43.276Z,18.47
2022-10-07T06:55:11.577Z,18.51
2022-10-07T06:57:46.848Z,18.60
2022-10-07T07:00:16.015Z,18.71
2022-10-07T07:02:44.416Z,18.62
2022-10-07T07:05:15.698Z,18.73
2022-10-07T07:07:43.995Z,18.83
2022-10-07T07:10:12.461Z,19.05
2022-10-07T07:12:40.933Z,18.87
2022-10-07T07:15:09.650Z,18.87
2022-10-07T07:17:37.768Z,18.87
2022-10-07T07:20:06.250Z,19.09
2022-10-07T07:22:33.641Z,19.19
2022-10-07T07:25:01.286Z,19.51
2022-10-07T07:27:29.253Z,19.40
2022-10-07T07:29:57.754Z,19.47
2022-10-07T07:32:25.753Z,19.67
2022-10-07T07:37:25.803Z,19.70
2022-10-07T07:39:53.536Z,19.94
2022-10-07T07:42:21.743Z,19.92
2022-10-07T07:44:50.093Z,19.88
2022-10-07T07:47:17.799Z,19.91
2022-10-07T07:49:46.081Z,20.01
2022-10-07T07:52:15.095Z,20.05
2022-10-07T07:54:43.405Z,20.13
2022-10-07T07:57:11.290Z,20.19
2022-10-07T07:59:39.256Z,20.40
2022-10-07T08:02:07.826Z,20.49
2022-10-07T08:04:36.127Z,20.62
2022-10-07T08:07:04.019Z,20.46
2022-10-07T08:09:31.996Z,20.63
2022-10-07T08:12:00.519Z,20.63
2022-10-07T08:14:28.186Z,20.88
2022-10-07T08:16:57.626Z,20.74
2022-10-07T08:19:26.406Z,20.81
2022-10-07T08:21:53.973Z,20.97
2022-10-07T08:24:25.776Z,21.13
2022-10-07T08:26:56.249Z,21.22
2022-10-07T08:29:24.004Z,21.07
2022-10-07T08:31:51.992Z,21.32
2022-10-07T08:34:19.562Z,21.43
2022-10-07T08:36:48.654Z,21.32
2022-10-07T08:39:16.259Z,21.37
2022-10-07T08:42:08.564Z,21.45
2022-10-07T08:44:39.732Z,21.36
2022-10-07T08:47:43.936Z,21.22
2022-10-07T08:50:19.089Z,21.40
2022-10-07T08:52:53.879Z,21.27
2022-10-07T08:55:33.223Z,21.26
2022-10-07T08:58:09.030Z,21.43
2022-10-07T09:01:01.317Z,21.53
2022-10-07T09:03:31.796Z,21.44
2022-10-07T09:05:59.771Z,21.53
2022-10-07T09:08:38.099Z,21.52
2022-10-07T09:11:15.831Z,21.62
2022-10-07T09:13:51.051Z,21.56
2022-10-07T09:16:22.339Z,21.62
2022-10-07T09:18:59.691Z,21.66
2022-10-07T09:21:45.642Z,21.62
2022-10-07T09:24:23.193Z,21.63
2022-10-07T09:26:59.039Z,21.74
2022-10-07T09:29:30.400Z,21.68
2022-10-07T09:31:58.286Z,21.57
2022-10-07T09:34:29.771Z,21.69
2022-10-07T09:37:09.833Z,21.85
2022-10-07T09:39:37.954Z,21.97
2022-10-07T09:42:08.849Z,22.04
2022-10-07T09:44:36.580Z,22.22
2022-10-07T09:47:22.882Z,22.12
2022-10-07T09:49:59.669Z,22.34
2022-10-07T09:52:29.306Z,22.30
2022-10-07T09:55:02.262Z,22.51
2022-10-07T09:57:33.962Z,22.40
2022-10-07T10:00:13.659Z,22.57
2022-10-07T10:02:44.554Z,22.63
2022-10-07T10:05:25.691Z,22.60
2022-10-07T10:07:57.284Z,22.50
2022-10-07T10:10:30.397Z,22.66
2022-10-07T10:13:00.227Z,22.40
2022-10-07T10:15:42.648Z,22.62
2022-10-07T10:18:37.857Z,22.66
2022-10-07T10:21:29.821Z,22.76
2022-10-07T10:23:59.729Z,22.84
2022-10-07T10:26:48.879Z,23.04
2022-10-07T10:29:35.746Z,22.96
2022-10-07T10:32:11.202Z,23.03
2022-10-07T10:35:00.237Z,22.86
2022-10-07T10:37:41.753Z,22.88
2022-10-07T10:40:21.495Z,23.08
2022-10-07T10:43:07.468Z,23.12
2022-10-07T10:45:40.134Z,23.16
2022-10-07T10:48:29.233Z,23.19
2022-10-07T10:51:10.386Z,23.16
2022-10-07T10:54:10.398Z,23.14
2022-10-07T10:56:50.132Z,23.19
2022-10-07T11:00:01.857Z,23.18
2022-10-07T11:02:38.558Z,23.28
2022-10-07T11:05:38.760Z,23.40
2022-10-07T11:08:20.998Z,23.40
2022-10-07T11:10:59.561Z,23.55
2022-10-07T11:13:54.272Z,23.59
2022-10-07T11:16:27.871Z,23.63
2022-10-07T11:19:00.825Z,23.82
2022-10-07T11:21:41.459Z,23.67
2022-10-07T11:24:14.997Z,23.63
2022-10-07T11:26:45.260Z,23.65
2022-10-07T11:30:01.112Z,23.55
2022-10-07T11:32:34.252Z,23.71
2022-10-07T11:35:34.024Z,23.79
2022-10-07T11:38:14.757Z,23.76
2022-10-07T11:40:59.892Z,23.63
2022-10-07T11:43:46.559Z,23.79
2022-10-07T11:46:24.787Z,23.72
2022-10-07T11:49:03.670Z,23.91
2022-10-07T11:51:35.452Z,23.71
2022-10-07T11:54:06.665Z,23.71
2022-10-07T11:56:44.795Z,23.83
2022-10-07T11:59:48.048Z,23.76
2022-10-07T12:02:28.076Z,23.58
2022-10-07T12:04:57.498Z,23.73
2022-10-07T12:07:37.010Z,23.71
2022-10-07T12:10:07.417Z,23.84
2022-10-07T12:12:47.472Z,23.78
2022-10-07T12:15:35.369Z,23.65
2022-10-07T12:18:05.972Z,23.63
2022-10-07T12:20:42.957Z,23.85
2022-10-07T12:23:19.588Z,23.81
2022-10-07T12:25:59.970Z,23.74
2022-10-07T12:28:34.952Z,23.73
2022-10-07T12:31:05.253Z,23.74
2022-10-07T12:33:56.256Z,23.80
2022-10-07T12:36:23.926Z,23.85
2022-10-07T12:38:57.599Z,23.59
2022-10-07T12:41:28.095Z,23.88
2022-10-07T12:44:14.197Z,23.82
2022-10-07T12:46:56.561Z,23.62
2022-10-07T12:49:30.068Z,23.42
2022-10-07T12:52:05.537Z,23.52
2022-10-07T12:54:37.849Z,23.60
2022-10-07T12:57:12.252Z,23.71
2022-10-07T13:00:01.033Z,23.74
2022-10-07T13:02:31.668Z,23.54
2022-10-07T13:05:17.913Z,23.51
2022-10-07T13:08:00.314Z,23.45
2022-10-07T13:10:50.471Z,23.36
2022-10-07T13:13:50.860Z,23.45
2022-10-07T13:16:31.761Z,23.25
2022-10-07T13:19:16.068Z,23.15
2022-10-07T13:21:57.730Z,23.31
2022-10-07T13:24:28.494Z,23.40
2022-10-07T13:26:56.527Z,23.40
2022-10-07T13:29:32.894Z,23.40
2022-10-07T13:32:09.721Z,23.35
2022-10-07T13:34:37.859Z,23.27
2022-10-07T13:37:30.184Z,23.40
2022-10-07T13:39:59.044Z,23.52
2022-10-07T13:42:28.812Z,23.58
2022-10-07T13:45:03.086Z,23.54
2022-10-07T13:47:33.908Z,23.58
2022-10-07T13:50:02.617Z,23.55
2022-10-07T13:52:36.996Z,23.48
2022-10-07T13:55:28.568Z,23.56
2022-10-07T13:57:57.345Z,23.49
2022-10-07T14:00:25.552Z,23.47
2022-10-07T14:02:53.551Z,23.38
2022-10-07T14:05:30.515Z,23.58
2022-10-07T14:08:00.236Z,23.62
2022-10-07T14:10:29.898Z,23.68
2022-10-07T14:13:03.882Z,23.46
2022-10-07T14:15:34.825Z,23.55
2022-10-07T14:18:05.649Z,23.53
2022-10-07T14:20:42.314Z,23.47
2022-10-07T14:23:32.834Z,23.51
2022-10-07T14:26:01.714Z,23.40
2022-10-07T14:28:30.917Z,23.44
2022-10-07T14:31:23.062Z,23.58
2022-10-07T14:34:15.287Z,23.51
2022-10-07T14:37:03.256Z,23.43
2022-10-07T14:39:42.374Z,23.45
2022-10-07T14:42:27.800Z,23.40
2022-10-07T14:44:56.812Z,23.34
2022-10-07T14:47:26.113Z,23.45
2022-10-07T14:49:55.803Z,23.24
2022-10-07T14:52:35.447Z,23.34
2022-10-07T14:55:06.787Z,23.29
2022-10-07T14:57:34.693Z,23.39
2022-10-07T15:00:02.032Z,23.21
2022-10-07T15:02:29.398Z,23.35
2022-10-07T15:04:56.967Z,23.15
2022-10-07T15:07:24.872Z,23.07
2022-10-07T15:09:52.447Z,22.98
2022-10-07T15:12:20.024Z,23.07
2022-10-07T15:14:47.299Z,23.08
2022-10-07T15:17:15.280Z,22.87
2022-10-07T15:19:42.936Z,22.89
2022-10-07T15:22:10.239Z,22.80
2022-10-07T15:24:37.561Z,22.82
2022-10-07T15:27:07.089Z,22.81
2022-10-07T15:29:34.365Z,22.78
2022-10-07T15:32:01.695Z,22.72
2022-10-07T15:34:29.269Z,22.65
2022-10-07T15:36:56.652Z,22.57
2022-10-07T15:39:23.937Z,22.48
2022-10-07T15:41:51.539Z,22.50
2022-10-07T15:44:21.980Z,22.45
2022-10-07T15:46:52.924Z,22.44
2022-10-07T15:49:20.557Z,22.51
2022-10-07T15:51:48.367Z,22.36
2022-10-07T15:54:15.844Z,22.40
2022-10-07T15:56:43.939Z,22.39
2022-10-07T15:59:11.304Z,22.29
2022-10-07T16:01:38.710Z,22.21
2022-10-07T16:04:11.578Z,22.31
2022-10-07T16:06:39.041Z,22.29
2022-10-07T16:09:06.703Z,22.12
2022-10-07T16:11:34.567Z,22.09
2022-10-07T16:14:02.384Z,22.08
2022-10-07T16:16:31.404Z,22.05
2022-10-07T16:19:00.006Z,21.90
2022-10-07T16:21:39.060Z,21.94
2022-10-07T16:24:13.586Z,21.83
2022-10-07T16:26:41.531Z,21.69
2022-10-07T16:29:32.810Z,21.66
2022-10-07T16:32:00.522Z,21.70
2022-10-07T16:34:28.699Z,21.55
2022-10-07T16:36:57.470Z,21.50
2022-10-07T16:39:25.220Z,21.43
2022-10-07T16:41:53.143Z,21.28
2022-10-07T16:44:21.145Z,21.36
2022-10-07T16:46:49.168Z,21.25
2022-10-07T16:49:18.259Z,21.19
2022-10-07T16:51:45.977Z,21.07
2022-10-07T16:54:15.939Z,20.99
2022-10-07T16:56:49.016Z,20.87
2022-10-07T16:59:23.727Z,20.80
2022-10-07T17:01:54.928Z,20.72
2022-10-07T17:04:23.286Z,20.67
2022-10-07T17:06:50.616Z,20.46
2022-10-07T17:09:18.519Z,20.45
2022-10-07T17:11:46.430Z,20.39
2022-10-07T17:14:19.274Z,20.31
2022-10-07T17:16:49.717Z,20.28
2022-10-07T17:19:20.402Z,20.21
2022-10-07T17:21:49.639Z,20.13
2022-10-07T17:24:18.336Z,20.05
2022-10-07T17:26:46.004Z,20.00
2022-10-07T17:29:18.083Z,19.90
2022-10-07T17:31:48.183Z,19.83
2022-10-07T17:34:16.644Z,19.75
2022-10-07T17:36:43.993Z,19.74
2022-10-07T17:39:11.992Z,19.64
2022-10-07T17:41:39.857Z,19.55
2022-10-07T17:44:09.375Z,19.51
2022-10-07T17:46:39.119Z,19.38
2022-10-07T17:49:09.671Z,19.39
2022-10-07T17:51:37.626Z,19.32
2022-10-07T17:54:05.999Z,19.17
2022-10-07T17:56:37.301Z,19.14
2022-10-07T17:59:05.375Z,19.10
2022-10-07T18:01:34.353Z,19.17
2022-10-07T18:04:07.674Z,19.12
2022-10-07T18:06:37.406Z,19.04
2022-10-07T18:09:07.067Z,18.94
2022-10-07T18:11:53.103Z,18.85
2022-10-07T18:14:39.186Z,18.88
2022-10-07T18:17:08.100Z,18.82
2022-10-07T18:19:35.936Z,18.79
2022-10-07T18:22:03.437Z,18.77
2022-10-07T18:24:30.859Z,18.80
2022-10-07T18:27:00.786Z,18.77
2022-10-07T18:29:33.322Z,18.78
2022-10-07T18:32:01.136Z,18.70
2022-10-07T18:34:28.584Z,18.57
2022-10-07T18:36:57.263Z,18.54
2022-10-07T18:39:27.625Z,18.53
2022-10-07T18:41:55.622Z,18.55
2022-10-07T18:44:23.189Z,18.57
2022-10-07T18:46:51.218Z,18.46
2022-10-07T18:49:18.788Z,18.37
2022-10-07T18:51:47.155Z,18.31
2022-10-07T18:54:14.825Z,18.35
2022-10-07T18:56:42.436Z,18.34
2022-10-07T18:59:12.973Z,18.31
2022-10-07T19:01:41.074Z,18.27
2022-10-07T19:04:09.476Z,18.24
2022-10-07T19:06:39.937Z,18.27
2022-10-07T19:09:10.501Z,18.23
2022-10-07T19:11:37.886Z,18.21
2022-10-07T19:14:05.281Z,18.17
2022-10-07T19:16:36.160Z,18.17
2022-10-07T19:19:05.846Z,18.02
2022-10-07T19:21:34.332Z,18.09
2022-10-07T19:24:02.093Z,18.11
2022-10-07T19:26:33.891Z,18.02
2022-10-07T19:29:02.062Z,17.97
2022-10-07T19:31:35.363Z,17.98
2022-10-07T19:34:05.417Z,17.94
2022-10-07T19:36:35.177Z,17.93
2022-10-07T19:39:04.324Z,17.86
2022-10-07T19:41:33.117Z,17.87
2022-10-07T19:44:00.516Z,17.75
2022-10-07T19:46:30.291Z,17.83
2022-10-07T19:48:59.113Z,17.67
2022-10-07T19:51:28.498Z,17.58
2022-10-07T19:53:57.384Z,17.55
2022-10-07T19:56:28.076Z,17.57
2022-10-07T19:59:00.352Z,17.54
2022-10-07T20:01:29.344Z,17.50
2022-10-07T20:04:02.991Z,17.49
2022-10-07T20:06:30.534Z,17.39
2022-10-07T20:08:58.348Z,17.41
2022-10-07T20:11:27.692Z,17.25
2022-10-07T20:13:55.023Z,17.26
2022-10-07T20:16:27.495Z,17.31
2022-10-07T20:18:58.549Z,17.25
2022-10-07T20:21:26.012Z,17.22
2022-10-07T20:23:53.878Z,17.11
2022-10-07T20:26:24.236Z,17.10
2022-10-07T20:28:54.000Z,16.95
2022-10-07T20:31:23.679Z,16.92
2022-10-07T20:33:52.991Z,17.02
2022-10-07T20:36:31.314Z,17.03
2022-10-07T20:39:25.337Z,16.98
2022-10-07T20:42:12.256Z,16.95
2022-10-07T20:44:39.636Z,16.92
2022-10-07T20:47:08.789Z,16.79
2022-10-07T20:49:38.587Z,16.81
2022-10-07T20:52:12.400Z,16.85
2022-10-07T20:54:40.219Z,16.70
2022-10-07T20:57:07.813Z,16.61
2022-10-07T20:59:35.103Z,16.70
2022-10-07T21:02:07.252Z,16.64
2022-10-07T21:04:36.750Z,16.60
2022-10-07T21:07:04.431Z,16.61
2022-10-07T21:09:36.150Z,16.45
2022-10-07T21:12:07.387Z,16.34
2022-10-07T21:14:35.859Z,16.34
2022-10-07T21:17:04.876Z,16.42
2022-10-07T21:19:34.074Z,16.41
2022-10-07T21:22:03.195Z,16.33
2022-10-07T21:24:34.195Z,16.34
2022-10-07T21:27:03.513Z,16.25
2022-10-07T21:29:31.379Z,16.24
2022-10-07T21:32:00.033Z,16.17
2022-10-07T21:34:29.699Z,16.11
2022-10-07T21:36:57.629Z,16.04
2022-10-07T21:39:26.318Z,16.06
2022-10-07T21:41:54.615Z,16.05
2022-10-07T21:44:21.954Z,16.03
2022-10-07T21:46:49.523Z,16.00
2022-10-07T21:49:17.409Z,16.03
2022-10-07T21:51:44.711Z,16.00
2022-10-07T21:54:16.511Z,15.97
2022-10-07T21:56:46.091Z,15.89
2022-10-07T21:59:14.163Z,15.96
2022-10-07T22:01:42.612Z,15.94
2022-10-07T22:04:16.202Z,15.84
2022-10-07T22:07:02.664Z,15.90
2022-10-07T22:09:31.113Z,15.80
2022-10-07T22:11:58.661Z,15.79
2022-10-07T22:14:41.291Z,15.78
2022-10-07T22:17:08.918Z,15.70
2022-10-07T22:19:36.234Z,15.80
2022-10-07T22:22:04.483Z,15.76
2022-10-07T22:24:32.266Z,15.66
2022-10-07T22:27:00.200Z,15.57
2022-10-07T22:29:28.291Z,15.64
2022-10-07T22:31:55.862Z,15.65
2022-10-07T22:34:50.331Z,15.50
2022-10-07T22:37:18.172Z,15.57
2022-10-07T22:39:45.529Z,15.48
2022-10-07T22:42:12.828Z,15.48
2022-10-07T22:44:40.420Z,15.43
2022-10-07T22:47:07.730Z,15.40
2022-10-07T22:49:35.014Z,15.42
2022-10-07T22:52:02.646Z,15.41
2022-10-07T22:54:30.104Z,15.35
2022-10-07T22:56:57.419Z,15.37
2022-10-07T22:59:24.951Z,15.34
2022-10-07T23:01:52.923Z,15.28
2022-10-07T23:04:21.332Z,15.27
2022-10-07T23:06:49.012Z,15.26
2022-10-07T23:09:16.587Z,15.23
2022-10-07T23:11:43.874Z,15.32
2022-10-07T23:14:12.551Z,15.24
2022-10-07T23:16:39.830Z,15.22
2022-10-07T23:19:08.608Z,15.20
2022-10-07T23:21:36.995Z,15.08
2022-10-07T23:24:07.765Z,15.11
2022-10-07T23:26:36.788Z,15.14
2022-10-07T23:29:04.105Z,15.08
2022-10-07T23:31:32.565Z,15.12
2022-10-07T23:34:02.150Z,15.03
2022-10-07T23:36:29.742Z,15.01
2022-10-07T23:38:59.459Z,15.00
2022-10-07T23:41:28.432Z,15.00
2022-10-07T23:43:57.441Z,15.01
2022-10-07T23:46:26.286Z,14.93
2022-10-07T23:48:54.431Z,14.93
2022-10-07T23:51:24.297Z,14.87
2022-10-07T23:53:51.628Z,14.94
2022-10-07T23:56:19.246Z,14.81
2022-10-07T23:58:46.696Z,14.86
